• Join FlightAware (Why Join?)
  • Login
  • US Flag 
12:32AM EDT


 

Airport Tracker/Info


-or-


 

Live Flight TrackerFlight Track Log ✈ ASQ6151 ✈ 03-May-2013 ✈ KORD - KPIA

Flight Track Log - Related Links

Times and Time Zones

All times are in EDT time to prevent confusion due to time zone crossing. See the ASQ6151 flight status page for this flight to view local times or setup timezone preferences in your user account.

Time Position Orientation Groundspeed Altitude Reporting Facility
EDT Latitude Longitude Course Direction KTS MPH feet Rate Location/Type
11:20PM 42.0167 -87.9000 270° West 176 203 2,700  Level Chicago TRACON
11:21PM 42.0667 -87.9667 315° West 249 287 4,600 2,040 Climbing Chicago TRACON
11:22PM 42.1000 -88.0667 294° West 291 335 7,200 2,280 Climbing Chicago TRACON
11:23PM 41.9667 -88.3760 270° West  Level FlightAware Approximate
11:24PM 41.9667 -88.4950 270° West  Level FlightAware Approximate
11:24PM 42.0500 -88.2667 251° West 306 352 11,500  Level Chicago TRACON
11:25PM 41.9667 -88.6140 270° West  Level FlightAware Approximate
11:26PM 41.9500 -88.4833 238° Southwest 357 411 14,200  Level Chicago TRACON
11:27PM 41.9000 -88.6000 240° Southwest 364 419 15,400 900 Climbing Chicago TRACON
11:28PM 41.8333 -88.7167 233° Southwest 375 432 16,100 300 Climbing Chicago TRACON
11:29PM 41.7667 -88.8167 228° Southwest 398 458 16,100 -60 Level Chicago TRACON
11:31PM 41.6670 -88.8974 211° Southwest  Level Estimated
11:31PM 41.6333 -89.0333 211° Southwest 366 421 16,000  Level Chicago TRACON
11:32PM 41.5667 -89.1333 228° Southwest 384 442 16,000  Level Chicago TRACON
11:34PM 41.4613 -89.1996 213° Southwest  Level Estimated
11:41PM 40.9526 -89.6247 185° South  Level FlightAware Approximate
11:42PM 40.8650 -89.6394 194° South  Level FlightAware Approximate
11:43PM 40.7778 -89.6544 189° South  Level FlightAware Approximate
11:44PM 40.6905 -89.6732 191° South  Level FlightAware Approximate
11:45PM 40.6642 -89.6933 191° South  Level Estimated
11:46PM 40.6642 -89.6933 191° South  Level Estimated
11:47PM 40.6642 -89.6933 191° South  Level Estimated
11:48PM 40.6642 -89.6933 191° South  Level Estimated
11:49PM 40.6642 -89.6933 191° South  Level Estimated
11:50PM 40.6642 -89.6933 191° South  Level Estimated
11:51PM 40.6642 -89.6933 191° South  Level Estimated
11:52PM 40.6642 -89.6933 191° South  Level Estimated
11:53PM 40.6642 -89.6933 191° South  Level Estimated
11:54PM 40.6642 -89.6933 191° South  Level Estimated